sensor_id;sensor_type;location;lat;lon;timestamp;temperature;humidity
38458;DHT22;24239;48.058;10.486;2022-07-23T00:00:27;22.30;98.50
38458;DHT22;24239;48.058;10.486;2022-07-23T00:02:53;22.10;99.90
38458;DHT22;24239;48.058;10.486;2022-07-23T00:05:21;21.80;99.90
38458;DHT22;24239;48.058;10.486;2022-07-23T00:07:47;21.40;99.90
38458;DHT22;24239;48.058;10.486;2022-07-23T00:10:16;20.80;99.90
38458;DHT22;24239;48.058;10.486;2022-07-23T00:12:42;20.20;99.90
38458;DHT22;24239;48.058;10.486;2022-07-23T00:15:08;19.70;99.90
38458;DHT22;24239;48.058;10.486;2022-07-23T00:17:34;19.10;99.90
38458;DHT22;24239;48.058;10.486;2022-07-23T00:20:00;18.30;99.90
38458;DHT22;24239;48.058;10.486;2022-07-23T00:22:26;17.90;99.90
38458;DHT22;24239;48.058;10.486;2022-07-23T00:24:53;17.60;99.90
38458;DHT22;24239;48.058;10.486;2022-07-23T00:27:22;17.50;99.90
38458;DHT22;24239;48.058;10.486;2022-07-23T00:29:48;17.50;99.90
38458;DHT22;24239;48.058;10.486;2022-07-23T00:32:14;17.40;99.90
38458;DHT22;24239;48.058;10.486;2022-07-23T00:34:45;17.40;99.90
38458;DHT22;24239;48.058;10.486;2022-07-23T00:37:11;17.30;99.90
38458;DHT22;24239;48.058;10.486;2022-07-23T00:39:39;17.30;99.90
38458;DHT22;24239;48.058;10.486;2022-07-23T00:42:05;17.30;99.90
38458;DHT22;24239;48.058;10.486;2022-07-23T00:44:31;17.30;99.90
38458;DHT22;24239;48.058;10.486;2022-07-23T00:46:58;17.30;99.90
38458;DHT22;24239;48.058;10.486;2022-07-23T00:49:27;17.30;99.90
38458;DHT22;24239;48.058;10.486;2022-07-23T00:51:56;17.40;99.90
38458;DHT22;24239;48.058;10.486;2022-07-23T00:54:25;17.40;99.90
38458;DHT22;24239;48.058;10.486;2022-07-23T00:56:51;17.20;99.90
38458;DHT22;24239;48.058;10.486;2022-07-23T00:59:16;17.00;99.90
38458;DHT22;24239;48.058;10.486;2022-07-23T01:01:42;17.00;99.90
38458;DHT22;24239;48.058;10.486;2022-07-23T01:04:10;17.10;99.90
38458;DHT22;24239;48.058;10.486;2022-07-23T01:06:38;17.10;99.90
38458;DHT22;24239;48.058;10.486;2022-07-23T01:09:07;17.20;99.90
38458;DHT22;24239;48.058;10.486;2022-07-23T01:11:37;17.20;99.90
38458;DHT22;24239;48.058;10.486;2022-07-23T01:14:17;17.20;99.90
38458;DHT22;24239;48.058;10.486;2022-07-23T01:16:44;17.30;99.90
38458;DHT22;24239;48.058;10.486;2022-07-23T01:19:10;17.30;99.90
38458;DHT22;24239;48.058;10.486;2022-07-23T01:21:40;17.30;99.90
38458;DHT22;24239;48.058;10.486;2022-07-23T01:24:07;17.30;99.90
38458;DHT22;24239;48.058;10.486;2022-07-23T01:26:33;17.30;99.90
38458;DHT22;24239;48.058;10.486;2022-07-23T01:28:59;17.30;99.90
38458;DHT22;24239;48.058;10.486;2022-07-23T01:31:25;17.40;99.90
38458;DHT22;24239;48.058;10.486;2022-07-23T01:33:51;17.30;99.90
38458;DHT22;24239;48.058;10.486;2022-07-23T01:36:17;17.40;99.90
38458;DHT22;24239;48.058;10.486;2022-07-23T01:38:42;17.40;99.90
38458;DHT22;24239;48.058;10.486;2022-07-23T01:41:08;17.40;99.90
38458;DHT22;24239;48.058;10.486;2022-07-23T01:43:34;17.40;99.90
38458;DHT22;24239;48.058;10.486;2022-07-23T01:45:59;17.40;99.90
38458;DHT22;24239;48.058;10.486;2022-07-23T01:48:25;17.40;99.90
38458;DHT22;24239;48.058;10.486;2022-07-23T01:50:51;17.40;99.90
38458;DHT22;24239;48.058;10.486;2022-07-23T01:53:17;17.40;99.90
38458;DHT22;24239;48.058;10.486;2022-07-23T01:55:47;17.50;99.90
38458;DHT22;24239;48.058;10.486;2022-07-23T01:58:13;17.40;99.90
38458;DHT22;24239;48.058;10.486;2022-07-23T02:00:39;17.40;99.90
38458;DHT22;24239;48.058;10.486;2022-07-23T02:03:05;17.40;99.90
38458;DHT22;24239;48.058;10.486;2022-07-23T02:05:30;17.40;99.90
38458;DHT22;24239;48.058;10.486;2022-07-23T02:07:57;17.40;99.90
38458;DHT22;24239;48.058;10.486;2022-07-23T02:10:24;17.40;99.90
38458;DHT22;24239;48.058;10.486;2022-07-23T02:12:50;17.40;99.90
38458;DHT22;24239;48.058;10.486;2022-07-23T02:15:16;17.40;99.90
38458;DHT22;24239;48.058;10.486;2022-07-23T02:17:41;17.50;99.90
38458;DHT22;24239;48.058;10.486;2022-07-23T02:20:09;17.40;99.90
38458;DHT22;24239;48.058;10.486;2022-07-23T02:22:38;17.40;99.90
38458;DHT22;24239;48.058;10.486;2022-07-23T02:25:05;17.30;99.90
38458;DHT22;24239;48.058;10.486;2022-07-23T02:27:32;17.30;99.90
38458;DHT22;24239;48.058;10.486;2022-07-23T02:29:58;17.20;99.90
38458;DHT22;24239;48.058;10.486;2022-07-23T02:32:24;17.20;99.90
38458;DHT22;24239;48.058;10.486;2022-07-23T02:34:50;17.20;99.90
38458;DHT22;24239;48.058;10.486;2022-07-23T02:37:17;17.20;99.90
38458;DHT22;24239;48.058;10.486;2022-07-23T02:39:43;17.20;99.90
38458;DHT22;24239;48.058;10.486;2022-07-23T02:42:08;17.20;99.90
38458;DHT22;24239;48.058;10.486;2022-07-23T02:44:34;17.10;99.90
38458;DHT22;24239;48.058;10.486;2022-07-23T02:47:00;17.10;99.90
38458;DHT22;24239;48.058;10.486;2022-07-23T02:49:26;17.10;99.90
38458;DHT22;24239;48.058;10.486;2022-07-23T02:51:52;17.00;99.90
38458;DHT22;24239;48.058;10.486;2022-07-23T02:54:18;17.00;99.90
38458;DHT22;24239;48.058;10.486;2022-07-23T02:56:44;16.90;99.90
38458;DHT22;24239;48.058;10.486;2022-07-23T02:59:10;16.90;99.90
38458;DHT22;24239;48.058;10.486;2022-07-23T03:01:36;16.90;99.90
38458;DHT22;24239;48.058;10.486;2022-07-23T03:04:02;16.90;99.90
38458;DHT22;24239;48.058;10.486;2022-07-23T03:06:28;16.90;99.90
38458;DHT22;24239;48.058;10.486;2022-07-23T03:08:53;16.90;99.90
38458;DHT22;24239;48.058;10.486;2022-07-23T03:11:19;16.80;99.90
38458;DHT22;24239;48.058;10.486;2022-07-23T03:13:45;16.90;99.90
38458;DHT22;24239;48.058;10.486;2022-07-23T03:16:11;16.80;99.90
38458;DHT22;24239;48.058;10.486;2022-07-23T03:18:37;16.80;99.90
38458;DHT22;24239;48.058;10.486;2022-07-23T03:21:06;16.80;99.90
38458;DHT22;24239;48.058;10.486;2022-07-23T03:23:32;16.80;99.90
38458;DHT22;24239;48.058;10.486;2022-07-23T03:25:58;16.80;99.90
38458;DHT22;24239;48.058;10.486;2022-07-23T03:28:24;16.80;99.90
38458;DHT22;24239;48.058;10.486;2022-07-23T03:30:49;16.80;99.90
38458;DHT22;24239;48.058;10.486;2022-07-23T03:33:16;16.80;99.90
38458;DHT22;24239;48.058;10.486;2022-07-23T03:35:46;16.80;99.90
38458;DHT22;24239;48.058;10.486;2022-07-23T03:38:12;16.70;99.90
38458;DHT22;24239;48.058;10.486;2022-07-23T03:40:41;16.70;99.90
38458;DHT22;24239;48.058;10.486;2022-07-23T03:43:07;16.70;99.90
38458;DHT22;24239;48.058;10.486;2022-07-23T03:45:33;16.70;99.90
38458;DHT22;24239;48.058;10.486;2022-07-23T03:47:59;16.70;99.90
38458;DHT22;24239;48.058;10.486;2022-07-23T03:50:25;16.60;99.90
38458;DHT22;24239;48.058;10.486;2022-07-23T03:52:51;16.70;99.90
38458;DHT22;24239;48.058;10.486;2022-07-23T03:55:16;16.70;99.90
38458;DHT22;24239;48.058;10.486;2022-07-23T03:57:43;16.70;99.90
38458;DHT22;24239;48.058;10.486;2022-07-23T04:00:10;16.70;99.90
38458;DHT22;24239;48.058;10.486;2022-07-23T04:02:37;16.80;99.90
38458;DHT22;24239;48.058;10.486;2022-07-23T04:05:04;16.80;99.90
38458;DHT22;24239;48.058;10.486;2022-07-23T04:07:30;16.80;99.90
38458;DHT22;24239;48.058;10.486;2022-07-23T04:09:56;16.80;99.90
38458;DHT22;24239;48.058;10.486;2022-07-23T04:12:22;16.90;99.90
38458;DHT22;24239;48.058;10.486;2022-07-23T04:14:48;16.90;99.90
38458;DHT22;24239;48.058;10.486;2022-07-23T04:17:14;16.90;99.90
38458;DHT22;24239;48.058;10.486;2022-07-23T04:19:40;16.90;99.90
38458;DHT22;24239;48.058;10.486;2022-07-23T04:22:10;16.90;99.90
38458;DHT22;24239;48.058;10.486;2022-07-23T04:24:37;17.00;99.90
38458;DHT22;24239;48.058;10.486;2022-07-23T04:27:03;16.90;99.90
38458;DHT22;24239;48.058;10.486;2022-07-23T04:29:29;16.80;99.90
38458;DHT22;24239;48.058;10.486;2022-07-23T04:31:58;16.70;99.90
38458;DHT22;24239;48.058;10.486;2022-07-23T04:34:23;16.70;99.90
38458;DHT22;24239;48.058;10.486;2022-07-23T04:36:52;16.70;99.90
38458;DHT22;24239;48.058;10.486;2022-07-23T04:39:18;16.60;99.90
38458;DHT22;24239;48.058;10.486;2022-07-23T04:41:44;16.60;99.90
38458;DHT22;24239;48.058;10.486;2022-07-23T04:44:10;16.60;99.90
38458;DHT22;24239;48.058;10.486;2022-07-23T04:46:35;16.60;99.90
38458;DHT22;24239;48.058;10.486;2022-07-23T04:49:01;16.60;99.90
38458;DHT22;24239;48.058;10.486;2022-07-23T04:51:27;16.60;99.90
38458;DHT22;24239;48.058;10.486;2022-07-23T04:53:55;16.60;99.90
38458;DHT22;24239;48.058;10.486;2022-07-23T04:56:21;16.60;99.90
38458;DHT22;24239;48.058;10.486;2022-07-23T04:58:46;16.60;99.90
38458;DHT22;24239;48.058;10.486;2022-07-23T05:01:12;16.70;99.90
38458;DHT22;24239;48.058;10.486;2022-07-23T05:03:38;16.70;99.90
38458;DHT22;24239;48.058;10.486;2022-07-23T05:06:04;16.80;99.90
38458;DHT22;24239;48.058;10.486;2022-07-23T05:08:30;16.70;99.90
38458;DHT22;24239;48.058;10.486;2022-07-23T05:10:56;16.80;99.90
38458;DHT22;24239;48.058;10.486;2022-07-23T05:13:22;16.90;99.90
38458;DHT22;24239;48.058;10.486;2022-07-23T05:15:48;16.80;99.90
38458;DHT22;24239;48.058;10.486;2022-07-23T05:18:14;16.90;99.90
38458;DHT22;24239;48.058;10.486;2022-07-23T05:20:40;16.80;99.90
38458;DHT22;24239;48.058;10.486;2022-07-23T05:23:06;16.80;99.90
38458;DHT22;24239;48.058;10.486;2022-07-23T05:25:32;16.70;99.90
38458;DHT22;24239;48.058;10.486;2022-07-23T05:27:58;16.70;99.90
38458;DHT22;24239;48.058;10.486;2022-07-23T05:30:23;16.80;99.90
38458;DHT22;24239;48.058;10.486;2022-07-23T05:32:49;16.90;99.90
38458;DHT22;24239;48.058;10.486;2022-07-23T05:35:15;16.90;99.90
38458;DHT22;24239;48.058;10.486;2022-07-23T05:37:41;16.90;99.90
38458;DHT22;24239;48.058;10.486;2022-07-23T05:40:09;16.90;99.90
38458;DHT22;24239;48.058;10.486;2022-07-23T05:42:39;16.90;99.90
38458;DHT22;24239;48.058;10.486;2022-07-23T05:45:06;16.90;99.90
38458;DHT22;24239;48.058;10.486;2022-07-23T05:47:47;16.90;99.90
38458;DHT22;24239;48.058;10.486;2022-07-23T05:50:13;16.90;99.90
38458;DHT22;24239;48.058;10.486;2022-07-23T05:52:39;16.90;99.90
38458;DHT22;24239;48.058;10.486;2022-07-23T05:55:07;16.90;99.90
38458;DHT22;24239;48.058;10.486;2022-07-23T05:57:33;16.90;99.90
38458;DHT22;24239;48.058;10.486;2022-07-23T05:59:58;17.00;99.90
38458;DHT22;24239;48.058;10.486;2022-07-23T06:02:24;17.10;99.90
38458;DHT22;24239;48.058;10.486;2022-07-23T06:04:50;17.10;99.90
38458;DHT22;24239;48.058;10.486;2022-07-23T06:07:16;17.20;99.90
38458;DHT22;24239;48.058;10.486;2022-07-23T06:09:41;17.20;99.90
38458;DHT22;24239;48.058;10.486;2022-07-23T06:12:07;17.30;99.90
38458;DHT22;24239;48.058;10.486;2022-07-23T06:14:33;17.40;99.90
38458;DHT22;24239;48.058;10.486;2022-07-23T06:16:59;17.40;99.90
38458;DHT22;24239;48.058;10.486;2022-07-23T06:19:25;17.50;99.90
38458;DHT22;24239;48.058;10.486;2022-07-23T06:21:51;17.50;99.90
38458;DHT22;24239;48.058;10.486;2022-07-23T06:24:17;17.40;99.90
38458;DHT22;24239;48.058;10.486;2022-07-23T06:26:43;17.50;99.90
38458;DHT22;24239;48.058;10.486;2022-07-23T06:29:08;17.50;99.90
38458;DHT22;24239;48.058;10.486;2022-07-23T06:31:34;17.60;99.90
38458;DHT22;24239;48.058;10.486;2022-07-23T06:34:03;17.60;99.90
38458;DHT22;24239;48.058;10.486;2022-07-23T06:36:28;17.60;99.90
38458;DHT22;24239;48.058;10.486;2022-07-23T06:38:57;17.60;99.90
38458;DHT22;24239;48.058;10.486;2022-07-23T06:41:23;17.60;99.90
38458;DHT22;24239;48.058;10.486;2022-07-23T06:43:49;17.60;99.90
38458;DHT22;24239;48.058;10.486;2022-07-23T06:46:15;17.50;99.90
38458;DHT22;24239;48.058;10.486;2022-07-23T06:48:40;17.50;99.90
38458;DHT22;24239;48.058;10.486;2022-07-23T06:51:08;17.50;99.90
38458;DHT22;24239;48.058;10.486;2022-07-23T06:53:34;17.50;99.90
38458;DHT22;24239;48.058;10.486;2022-07-23T06:56:00;17.50;99.90
38458;DHT22;24239;48.058;10.486;2022-07-23T06:58:25;17.60;99.90
38458;DHT22;24239;48.058;10.486;2022-07-23T07:00:51;17.60;99.90
38458;DHT22;24239;48.058;10.486;2022-07-23T07:03:17;17.60;99.90
38458;DHT22;24239;48.058;10.486;2022-07-23T07:05:44;17.70;99.90
38458;DHT22;24239;48.058;10.486;2022-07-23T07:08:09;17.80;99.90
38458;DHT22;24239;48.058;10.486;2022-07-23T07:10:35;17.90;99.90
38458;DHT22;24239;48.058;10.486;2022-07-23T07:13:01;18.10;99.90
38458;DHT22;24239;48.058;10.486;2022-07-23T07:15:28;18.20;99.90
38458;DHT22;24239;48.058;10.486;2022-07-23T07:17:54;18.30;99.90
38458;DHT22;24239;48.058;10.486;2022-07-23T07:20:20;18.50;99.90
38458;DHT22;24239;48.058;10.486;2022-07-23T07:22:46;18.60;99.90
38458;DHT22;24239;48.058;10.486;2022-07-23T07:25:12;18.80;99.90
38458;DHT22;24239;48.058;10.486;2022-07-23T07:27:37;18.90;99.90
38458;DHT22;24239;48.058;10.486;2022-07-23T07:30:04;19.00;99.90
38458;DHT22;24239;48.058;10.486;2022-07-23T07:32:30;19.10;99.90
38458;DHT22;24239;48.058;10.486;2022-07-23T07:34:58;19.30;99.90
38458;DHT22;24239;48.058;10.486;2022-07-23T07:37:24;19.40;99.90
38458;DHT22;24239;48.058;10.486;2022-07-23T07:39:50;19.50;99.90
38458;DHT22;24239;48.058;10.486;2022-07-23T07:42:16;19.60;99.90
38458;DHT22;24239;48.058;10.486;2022-07-23T07:44:41;19.60;99.90
38458;DHT22;24239;48.058;10.486;2022-07-23T07:47:07;19.80;99.90
38458;DHT22;24239;48.058;10.486;2022-07-23T07:49:33;19.90;99.90
38458;DHT22;24239;48.058;10.486;2022-07-23T07:51:59;20.10;99.90
38458;DHT22;24239;48.058;10.486;2022-07-23T07:54:24;20.30;99.90
38458;DHT22;24239;48.058;10.486;2022-07-23T07:56:50;20.50;99.90
38458;DHT22;24239;48.058;10.486;2022-07-23T07:59:16;20.70;99.90
38458;DHT22;24239;48.058;10.486;2022-07-23T08:01:42;21.00;99.90
38458;DHT22;24239;48.058;10.486;2022-07-23T08:04:08;21.20;99.90
38458;DHT22;24239;48.058;10.486;2022-07-23T08:06:36;21.40;99.90
38458;DHT22;24239;48.058;10.486;2022-07-23T08:09:02;21.60;99.90
38458;DHT22;24239;48.058;10.486;2022-07-23T08:11:27;21.80;99.90
38458;DHT22;24239;48.058;10.486;2022-07-23T08:13:53;22.00;99.90
38458;DHT22;24239;48.058;10.486;2022-07-23T08:16:19;22.00;99.90
38458;DHT22;24239;48.058;10.486;2022-07-23T08:18:44;22.10;99.90
38458;DHT22;24239;48.058;10.486;2022-07-23T08:21:10;22.30;99.90
38458;DHT22;24239;48.058;10.486;2022-07-23T08:23:36;22.20;99.90
38458;DHT22;24239;48.058;10.486;2022-07-23T08:26:02;22.10;99.90
38458;DHT22;24239;48.058;10.486;2022-07-23T08:28:28;21.90;99.90
38458;DHT22;24239;48.058;10.486;2022-07-23T08:30:56;21.80;99.90
38458;DHT22;24239;48.058;10.486;2022-07-23T08:33:22;21.60;99.90
38458;DHT22;24239;48.058;10.486;2022-07-23T08:35:49;21.50;99.90
38458;DHT22;24239;48.058;10.486;2022-07-23T08:38:17;21.30;99.90
38458;DHT22;24239;48.058;10.486;2022-07-23T08:40:45;21.40;99.90
38458;DHT22;24239;48.058;10.486;2022-07-23T08:43:13;21.50;99.90
38458;DHT22;24239;48.058;10.486;2022-07-23T08:45:44;21.50;99.90
38458;DHT22;24239;48.058;10.486;2022-07-23T08:48:17;21.70;99.90
38458;DHT22;24239;48.058;10.486;2022-07-23T08:50:45;21.90;99.90
38458;DHT22;24239;48.058;10.486;2022-07-23T08:53:12;22.00;99.90
38458;DHT22;24239;48.058;10.486;2022-07-23T08:55:44;22.20;99.90
38458;DHT22;24239;48.058;10.486;2022-07-23T08:58:10;22.50;99.90
38458;DHT22;24239;48.058;10.486;2022-07-23T09:00:36;22.70;99.90
38458;DHT22;24239;48.058;10.486;2022-07-23T09:03:02;22.80;99.90
38458;DHT22;24239;48.058;10.486;2022-07-23T09:05:28;22.80;99.90
38458;DHT22;24239;48.058;10.486;2022-07-23T09:08:07;22.90;99.90
38458;DHT22;24239;48.058;10.486;2022-07-23T09:11:03;23.00;99.90
38458;DHT22;24239;48.058;10.486;2022-07-23T09:13:37;23.10;99.90
38458;DHT22;24239;48.058;10.486;2022-07-23T09:16:23;23.20;99.90
38458;DHT22;24239;48.058;10.486;2022-07-23T09:21:54;23.40;99.90
38458;DHT22;24239;48.058;10.486;2022-07-23T09:24:13;23.50;99.90
38458;DHT22;24239;48.058;10.486;2022-07-23T09:26:46;23.60;99.90
38458;DHT22;24239;48.058;10.486;2022-07-23T09:29:21;23.70;99.90
38458;DHT22;24239;48.058;10.486;2022-07-23T09:31:57;23.70;99.90
38458;DHT22;24239;48.058;10.486;2022-07-23T09:34:23;23.50;99.90
38458;DHT22;24239;48.058;10.486;2022-07-23T09:36:51;23.60;99.90
38458;DHT22;24239;48.058;10.486;2022-07-23T09:39:25;23.80;99.90
38458;DHT22;24239;48.058;10.486;2022-07-23T09:41:51;23.60;99.90
38458;DHT22;24239;48.058;10.486;2022-07-23T09:44:19;23.50;99.90
38458;DHT22;24239;48.058;10.486;2022-07-23T09:46:47;23.50;99.90
38458;DHT22;24239;48.058;10.486;2022-07-23T09:49:17;23.50;99.90
38458;DHT22;24239;48.058;10.486;2022-07-23T09:57:11;23.30;99.90
38458;DHT22;24239;48.058;10.486;2022-07-23T09:59:42;23.20;99.90
38458;DHT22;24239;48.058;10.486;2022-07-23T10:02:10;23.20;99.90
38458;DHT22;24239;48.058;10.486;2022-07-23T10:04:38;23.10;99.90
38458;DHT22;24239;48.058;10.486;2022-07-23T10:07:06;23.20;99.90
38458;DHT22;24239;48.058;10.486;2022-07-23T10:09:39;23.20;99.90
38458;DHT22;24239;48.058;10.486;2022-07-23T10:12:13;23.30;99.90
38458;DHT22;24239;48.058;10.486;2022-07-23T10:14:42;23.20;99.90
38458;DHT22;24239;48.058;10.486;2022-07-23T10:17:08;23.00;99.90
38458;DHT22;24239;48.058;10.486;2022-07-23T10:19:35;23.10;99.90
38458;DHT22;24239;48.058;10.486;2022-07-23T10:22:25;23.10;99.90
38458;DHT22;24239;48.058;10.486;2022-07-23T10:25:24;23.10;99.90
38458;DHT22;24239;48.058;10.486;2022-07-23T10:37:00;23.20;99.90
38458;DHT22;24239;48.058;10.486;2022-07-23T10:39:32;23.00;99.90
38458;DHT22;24239;48.058;10.486;2022-07-23T10:42:16;22.90;99.90
38458;DHT22;24239;48.058;10.486;2022-07-23T10:44:45;22.70;99.90
38458;DHT22;24239;48.058;10.486;2022-07-23T10:47:21;22.60;99.90
38458;DHT22;24239;48.058;10.486;2022-07-23T10:49:51;22.50;99.90
38458;DHT22;24239;48.058;10.486;2022-07-23T10:52:24;22.30;99.90
38458;DHT22;24239;48.058;10.486;2022-07-23T10:55:07;22.30;99.90
38458;DHT22;24239;48.058;10.486;2022-07-23T10:57:50;22.20;99.90
38458;DHT22;24239;48.058;10.486;2022-07-23T11:00:17;22.20;99.90
38458;DHT22;24239;48.058;10.486;2022-07-23T11:02:46;22.40;99.90
38458;DHT22;24239;48.058;10.486;2022-07-23T11:05:18;22.60;99.90
38458;DHT22;24239;48.058;10.486;2022-07-23T11:26:49;22.60;99.90
38458;DHT22;24239;48.058;10.486;2022-07-23T11:34:46;23.00;99.90
38458;DHT22;24239;48.058;10.486;2022-07-23T11:37:35;23.10;99.90
38458;DHT22;24239;48.058;10.486;2022-07-23T11:40:05;23.30;99.90
38458;DHT22;24239;48.058;10.486;2022-07-23T11:42:35;23.30;99.90
38458;DHT22;24239;48.058;10.486;2022-07-23T11:45:02;23.30;99.90
38458;DHT22;24239;48.058;10.486;2022-07-23T11:47:27;23.20;99.90
38458;DHT22;24239;48.058;10.486;2022-07-23T11:49:59;23.10;99.90
38458;DHT22;24239;48.058;10.486;2022-07-23T11:52:26;23.00;99.90
38458;DHT22;24239;48.058;10.486;2022-07-23T11:54:59;23.00;99.90
38458;DHT22;24239;48.058;10.486;2022-07-23T11:57:27;22.90;99.90
38458;DHT22;24239;48.058;10.486;2022-07-23T11:59:56;22.90;99.90
38458;DHT22;24239;48.058;10.486;2022-07-23T12:02:23;22.90;99.90
38458;DHT22;24239;48.058;10.486;2022-07-23T12:04:50;23.10;99.90
38458;DHT22;24239;48.058;10.486;2022-07-23T12:09:57;23.30;99.90
38458;DHT22;24239;48.058;10.486;2022-07-23T12:12:23;23.30;99.90
38458;DHT22;24239;48.058;10.486;2022-07-23T12:14:54;23.20;99.90
38458;DHT22;24239;48.058;10.486;2022-07-23T12:17:21;23.10;99.90
38458;DHT22;24239;48.058;10.486;2022-07-23T12:19:47;23.20;99.90
38458;DHT22;24239;48.058;10.486;2022-07-23T12:22:13;23.30;99.90
38458;DHT22;24239;48.058;10.486;2022-07-23T12:24:59;23.50;99.90
38458;DHT22;24239;48.058;10.486;2022-07-23T12:27:27;23.80;99.90
38458;DHT22;24239;48.058;10.486;2022-07-23T12:29:56;24.10;99.90
38458;DHT22;24239;48.058;10.486;2022-07-23T12:32:27;24.30;99.90
38458;DHT22;24239;48.058;10.486;2022-07-23T12:35:03;24.20;99.90
38458;DHT22;24239;48.058;10.486;2022-07-23T12:37:38;24.10;99.90
38458;DHT22;24239;48.058;10.486;2022-07-23T12:40:23;24.10;99.90
38458;DHT22;24239;48.058;10.486;2022-07-23T12:42:55;24.00;99.90
38458;DHT22;24239;48.058;10.486;2022-07-23T12:45:21;23.70;99.90
38458;DHT22;24239;48.058;10.486;2022-07-23T12:50:43;23.50;99.90
38458;DHT22;24239;48.058;10.486;2022-07-23T12:56:00;23.10;99.90
38458;DHT22;24239;48.058;10.486;2022-07-23T13:06:34;22.50;99.90
38458;DHT22;24239;48.058;10.486;2022-07-23T13:09:01;22.50;99.90
38458;DHT22;24239;48.058;10.486;2022-07-23T13:11:27;22.60;99.90
38458;DHT22;24239;48.058;10.486;2022-07-23T13:13:53;22.80;99.90
38458;DHT22;24239;48.058;10.486;2022-07-23T13:16:22;22.80;99.90
38458;DHT22;24239;48.058;10.486;2022-07-23T13:18:48;23.00;99.90
38458;DHT22;24239;48.058;10.486;2022-07-23T13:21:13;23.20;99.90
38458;DHT22;24239;48.058;10.486;2022-07-23T13:23:39;23.40;99.90
38458;DHT22;24239;48.058;10.486;2022-07-23T13:26:05;23.60;99.90
38458;DHT22;24239;48.058;10.486;2022-07-23T13:28:31;23.80;99.90
38458;DHT22;24239;48.058;10.486;2022-07-23T13:30:56;24.00;99.90
38458;DHT22;24239;48.058;10.486;2022-07-23T13:33:24;24.00;99.90
38458;DHT22;24239;48.058;10.486;2022-07-23T13:35:51;23.90;99.90
38458;DHT22;24239;48.058;10.486;2022-07-23T13:38:18;23.90;99.90
38458;DHT22;24239;48.058;10.486;2022-07-23T13:40:46;23.80;99.90
38458;DHT22;24239;48.058;10.486;2022-07-23T13:43:14;23.80;99.90
38458;DHT22;24239;48.058;10.486;2022-07-23T13:45:43;23.70;99.90
38458;DHT22;24239;48.058;10.486;2022-07-23T13:48:11;23.70;99.90
38458;DHT22;24239;48.058;10.486;2022-07-23T13:50:37;23.30;99.90
38458;DHT22;24239;48.058;10.486;2022-07-23T13:53:15;23.20;99.90
38458;DHT22;24239;48.058;10.486;2022-07-23T13:55:43;23.10;99.90
38458;DHT22;24239;48.058;10.486;2022-07-23T13:58:09;23.10;99.90
38458;DHT22;24239;48.058;10.486;2022-07-23T14:00:38;23.20;99.90
38458;DHT22;24239;48.058;10.486;2022-07-23T14:03:04;23.40;99.90
38458;DHT22;24239;48.058;10.486;2022-07-23T14:05:30;23.70;99.90
38458;DHT22;24239;48.058;10.486;2022-07-23T14:07:56;23.80;99.90
38458;DHT22;24239;48.058;10.486;2022-07-23T14:10:23;24.00;99.90
38458;DHT22;24239;48.058;10.486;2022-07-23T14:12:50;24.10;99.90
38458;DHT22;24239;48.058;10.486;2022-07-23T14:15:17;24.20;99.90
38458;DHT22;24239;48.058;10.486;2022-07-23T14:17:45;24.40;99.90
38458;DHT22;24239;48.058;10.486;2022-07-23T14:20:12;24.30;99.90
38458;DHT22;24239;48.058;10.486;2022-07-23T14:22:39;24.40;99.90
38458;DHT22;24239;48.058;10.486;2022-07-23T14:25:09;24.50;99.90
38458;DHT22;24239;48.058;10.486;2022-07-23T14:27:35;24.60;99.90
38458;DHT22;24239;48.058;10.486;2022-07-23T14:30:03;24.50;99.90
38458;DHT22;24239;48.058;10.486;2022-07-23T14:32:30;24.50;99.90
38458;DHT22;24239;48.058;10.486;2022-07-23T14:35:02;24.40;99.90
38458;DHT22;24239;48.058;10.486;2022-07-23T14:37:27;24.50;99.90
38458;DHT22;24239;48.058;10.486;2022-07-23T14:39:53;24.60;99.90
38458;DHT22;24239;48.058;10.486;2022-07-23T14:42:19;24.70;99.90
38458;DHT22;24239;48.058;10.486;2022-07-23T14:44:45;24.90;99.90
38458;DHT22;24239;48.058;10.486;2022-07-23T14:47:11;25.20;99.90
38458;DHT22;24239;48.058;10.486;2022-07-23T14:49:37;25.40;99.90
38458;DHT22;24239;48.058;10.486;2022-07-23T14:52:03;25.70;99.90
38458;DHT22;24239;48.058;10.486;2022-07-23T14:54:30;25.80;99.90
38458;DHT22;24239;48.058;10.486;2022-07-23T14:56:57;26.00;99.90
38458;DHT22;24239;48.058;10.486;2022-07-23T14:59:24;26.30;99.90
38458;DHT22;24239;48.058;10.486;2022-07-23T15:01:54;26.50;99.90
38458;DHT22;24239;48.058;10.486;2022-07-23T15:04:20;26.70;99.90
38458;DHT22;24239;48.058;10.486;2022-07-23T15:06:46;26.90;99.90
38458;DHT22;24239;48.058;10.486;2022-07-23T15:09:11;26.80;99.90
38458;DHT22;24239;48.058;10.486;2022-07-23T15:11:37;26.60;99.90
38458;DHT22;24239;48.058;10.486;2022-07-23T15:14:07;26.70;99.90
38458;DHT22;24239;48.058;10.486;2022-07-23T15:16:33;26.70;99.90
38458;DHT22;24239;48.058;10.486;2022-07-23T15:19:00;26.80;99.90
38458;DHT22;24239;48.058;10.486;2022-07-23T15:21:27;26.80;99.90
38458;DHT22;24239;48.058;10.486;2022-07-23T15:23:55;26.80;99.90
38458;DHT22;24239;48.058;10.486;2022-07-23T15:26:25;26.80;99.90
38458;DHT22;24239;48.058;10.486;2022-07-23T15:28:51;26.40;99.90
38458;DHT22;24239;48.058;10.486;2022-07-23T15:31:16;25.60;99.90
38458;DHT22;24239;48.058;10.486;2022-07-23T15:33:44;24.90;99.90
38458;DHT22;24239;48.058;10.486;2022-07-23T15:36:10;24.30;99.90
38458;DHT22;24239;48.058;10.486;2022-07-23T15:38:36;24.00;99.90
38458;DHT22;24239;48.058;10.486;2022-07-23T15:41:02;24.10;99.90
38458;DHT22;24239;48.058;10.486;2022-07-23T15:43:29;24.40;99.90
38458;DHT22;24239;48.058;10.486;2022-07-23T15:45:55;24.60;99.90
38458;DHT22;24239;48.058;10.486;2022-07-23T15:48:21;24.80;99.90
38458;DHT22;24239;48.058;10.486;2022-07-23T15:50:48;25.00;99.90
38458;DHT22;24239;48.058;10.486;2022-07-23T15:53:14;25.10;99.90
38458;DHT22;24239;48.058;10.486;2022-07-23T15:55:40;24.90;99.90
38458;DHT22;24239;48.058;10.486;2022-07-23T15:58:06;24.80;99.90
38458;DHT22;24239;48.058;10.486;2022-07-23T16:00:33;24.70;99.90
38458;DHT22;24239;48.058;10.486;2022-07-23T16:02:58;24.80;99.90
38458;DHT22;24239;48.058;10.486;2022-07-23T16:05:24;25.00;99.90
38458;DHT22;24239;48.058;10.486;2022-07-23T16:07:50;25.10;99.90
38458;DHT22;24239;48.058;10.486;2022-07-23T16:10:16;25.40;99.90
38458;DHT22;24239;48.058;10.486;2022-07-23T16:12:41;25.60;99.90
38458;DHT22;24239;48.058;10.486;2022-07-23T16:15:08;25.80;99.90